Aviation Digital Data Service (ADDS)

Output produced by METARs form (1355 UTC 27 June 2017)
found at http://aviationweather.gov/adds/metars/
 
KEWN 271121Z 2712/2812 VRB03KT P6SM SKC 
     FM271800 29005KT P6SM BKN080 
     FM280400 01004KT P6SM SCT250